createdAt,value
2019-06-26T00:00:57.269Z,17.73
2019-06-26T00:03:27.241Z,14.85
2019-06-26T00:05:57.202Z,18.15
2019-06-26T00:08:27.183Z,16.17
2019-06-26T00:10:57.099Z,14.07
2019-06-26T00:13:27.199Z,13.25
2019-06-26T00:15:57.215Z,13.13
2019-06-26T00:18:27.164Z,12.58
2019-06-26T00:20:57.123Z,17.00
2019-06-26T00:23:27.098Z,12.20
2019-06-26T00:25:57.014Z,12.35
2019-06-26T00:28:26.920Z,12.25
2019-06-26T00:30:56.799Z,12.35
2019-06-26T00:33:26.756Z,11.33
2019-06-26T00:35:56.733Z,9.53
2019-06-26T00:38:26.638Z,9.95
2019-06-26T00:40:56.595Z,12.07
2019-06-26T00:43:41.592Z,13.10
2019-06-26T00:45:58.097Z,9.60
2019-06-26T00:48:27.978Z,11.38
2019-06-26T00:50:58.043Z,12.10
2019-06-26T00:53:27.931Z,10.35
2019-06-26T00:55:57.956Z,10.43
2019-06-26T00:58:27.891Z,10.13
2019-06-26T01:00:57.807Z,10.90
2019-06-26T01:03:27.724Z,15.10
2019-06-26T01:05:57.718Z,10.98
2019-06-26T01:08:27.618Z,12.70
2019-06-26T01:10:57.579Z,9.18
2019-06-26T01:13:27.574Z,9.58
2019-06-26T01:15:57.530Z,9.98
2019-06-26T01:18:27.492Z,8.68
2019-06-26T01:20:57.672Z,7.60
2019-06-26T01:23:27.544Z,8.88
2019-06-26T01:25:57.468Z,7.55
2019-06-26T01:28:27.381Z,8.43
2019-06-26T01:30:57.282Z,8.40
2019-06-26T01:33:28.407Z,11.20
2019-06-26T01:35:58.331Z,9.83
2019-06-26T01:38:28.240Z,7.33
2019-06-26T01:40:58.183Z,7.55
2019-06-26T01:43:28.119Z,8.80
2019-06-26T01:45:58.026Z,8.00
2019-06-26T01:48:27.918Z,7.12
2019-06-26T01:50:57.789Z,8.80
2019-06-26T01:53:27.784Z,10.75
2019-06-26T01:55:57.671Z,9.38
2019-06-26T01:58:27.573Z,9.53
2019-06-26T02:00:57.521Z,9.63
2019-06-26T02:03:27.407Z,6.87
2019-06-26T02:05:57.287Z,7.08
2019-06-26T02:08:27.225Z,6.08
2019-06-26T02:10:57.250Z,7.80
2019-06-26T02:13:27.151Z,7.00
2019-06-26T02:15:57.045Z,7.90
2019-06-26T02:18:40.406Z,6.78
2019-06-26T02:21:10.347Z,8.18
2019-06-26T02:23:40.324Z,7.92
2019-06-26T02:26:10.246Z,9.45
2019-06-26T02:28:40.253Z,7.72
2019-06-26T02:31:10.308Z,7.67
2019-06-26T02:33:40.278Z,8.95
2019-06-26T02:36:10.257Z,8.60
2019-06-26T02:38:40.185Z,7.62
2019-06-26T02:41:10.135Z,9.73
2019-06-26T02:43:40.023Z,10.75
2019-06-26T02:46:10.088Z,14.98
2019-06-26T02:48:40.088Z,15.28
2019-06-26T02:51:10.025Z,9.83
2019-06-26T02:53:39.906Z,12.07
2019-06-26T02:56:09.771Z,15.18
2019-06-26T02:58:39.750Z,11.00
2019-06-26T03:01:09.663Z,10.78
2019-06-26T03:03:39.576Z,13.03
2019-06-26T03:06:09.535Z,9.33
2019-06-26T03:08:39.488Z,15.83
2019-06-26T03:11:09.415Z,12.23
2019-06-26T03:13:39.419Z,11.20
2019-06-26T03:16:09.379Z,8.50
2019-06-26T03:18:39.546Z,11.35
2019-06-26T03:21:09.935Z,9.08
2019-06-26T03:23:39.846Z,9.73
2019-06-26T03:26:09.751Z,11.65
2019-06-26T03:28:39.638Z,8.13
2019-06-26T03:31:09.629Z,8.80
2019-06-26T03:33:39.589Z,7.90
2019-06-26T03:36:09.593Z,8.08
2019-06-26T03:38:39.551Z,9.58
2019-06-26T03:41:09.464Z,9.40
2019-06-26T03:43:39.379Z,7.80
2019-06-26T03:46:09.313Z,9.20
2019-06-26T03:48:39.413Z,9.20
2019-06-26T03:51:09.363Z,10.23
2019-06-26T03:53:39.503Z,7.67
2019-06-26T03:56:09.382Z,7.25
2019-06-26T03:58:39.343Z,7.25
2019-06-26T04:01:09.215Z,6.85
2019-06-26T04:03:39.135Z,7.30
2019-06-26T04:06:09.035Z,6.92
2019-06-26T04:08:38.922Z,7.12
2019-06-26T04:11:08.834Z,12.82
2019-06-26T04:13:38.746Z,8.93
2019-06-26T04:16:08.979Z,21.73
2019-06-26T04:21:15.494Z,39.05
2019-06-26T04:23:45.402Z,33.65
2019-06-26T04:26:15.270Z,35.25
2019-06-26T04:28:45.160Z,31.55
2019-06-26T04:31:15.042Z,35.15
2019-06-26T04:33:45.012Z,32.63
2019-06-26T04:36:14.930Z,32.53
2019-06-26T04:38:44.795Z,20.37
2019-06-26T04:41:14.703Z,12.37
2019-06-26T04:43:44.678Z,10.20
2019-06-26T04:46:14.583Z,9.73
2019-06-26T04:48:44.477Z,9.55
2019-06-26T04:51:14.365Z,10.82
2019-06-26T04:53:44.296Z,9.83
2019-06-26T04:56:14.239Z,11.55
2019-06-26T04:58:44.212Z,13.10
2019-06-26T05:01:14.093Z,9.78
2019-06-26T05:03:43.998Z,11.30
2019-06-26T05:06:13.880Z,10.68
2019-06-26T05:08:43.751Z,13.45
2019-06-26T05:11:13.616Z,9.20
2019-06-26T05:13:43.475Z,10.48
2019-06-26T05:16:15.609Z,16.10
2019-06-26T05:18:44.923Z,9.35
2019-06-26T05:21:14.826Z,11.65
2019-06-26T05:23:44.703Z,9.33
2019-06-26T05:26:14.621Z,9.08
2019-06-26T05:28:44.487Z,7.65
2019-06-26T05:31:14.367Z,9.78
2019-06-26T05:33:44.274Z,15.95
2019-06-26T05:36:14.139Z,14.73
2019-06-26T05:38:44.059Z,23.18
2019-06-26T05:41:13.923Z,26.57
2019-06-26T05:43:43.838Z,22.25
2019-06-26T05:46:26.897Z,17.27
2019-06-26T05:48:45.360Z,31.85
2019-06-26T05:51:15.358Z,21.70
2019-06-26T05:53:45.291Z,16.15
2019-06-26T05:56:15.201Z,34.85
2019-06-26T05:58:45.123Z,51.92
2019-06-26T06:01:15.155Z,35.38
2019-06-26T06:03:45.107Z,67.22
2019-06-26T06:06:15.092Z,68.15
2019-06-26T06:08:44.951Z,46.83
2019-06-26T06:11:14.893Z,44.20
2019-06-26T06:13:45.507Z,35.10
2019-06-26T06:16:15.371Z,36.68
2019-06-26T06:18:45.278Z,15.68
2019-06-26T06:21:15.200Z,20.92
2019-06-26T06:23:45.083Z,17.77
2019-06-26T06:26:15.199Z,21.80
2019-06-26T06:28:45.134Z,22.22
2019-06-26T06:31:15.033Z,25.65
2019-06-26T06:33:44.904Z,15.35
2019-06-26T06:36:14.818Z,24.02
2019-06-26T06:38:44.778Z,22.48
2019-06-26T06:41:14.753Z,22.22
2019-06-26T06:43:44.667Z,19.00
2019-06-26T06:46:14.622Z,17.87
2019-06-26T06:48:44.518Z,17.67
2019-06-26T06:51:14.420Z,33.85
2019-06-26T06:53:44.357Z,45.92
2019-06-26T06:56:15.041Z,98.67
2019-06-26T06:58:44.932Z,51.28
2019-06-26T07:01:14.836Z,63.50
2019-06-26T07:03:44.743Z,67.37
2019-06-26T07:06:14.699Z,16.52
2019-06-26T07:08:44.589Z,16.05
2019-06-26T07:11:14.468Z,26.35
2019-06-26T07:13:44.379Z,14.35
2019-06-26T07:16:14.333Z,13.83
2019-06-26T07:18:44.793Z,20.17
2019-06-26T07:21:14.736Z,16.85
2019-06-26T07:23:44.654Z,16.65
2019-06-26T07:26:14.575Z,14.55
2019-06-26T07:28:44.449Z,13.53
2019-06-26T07:31:14.386Z,14.93
2019-06-26T07:33:44.351Z,17.82
2019-06-26T07:36:14.246Z,16.02
2019-06-26T07:38:44.135Z,19.07
2019-06-26T07:41:14.095Z,14.98
2019-06-26T07:43:43.982Z,16.77
2019-06-26T07:46:13.875Z,20.10
2019-06-26T07:48:43.764Z,21.23
2019-06-26T07:51:13.634Z,18.30
2019-06-26T07:53:43.522Z,20.82
2019-06-26T07:56:13.430Z,21.85
2019-06-26T07:58:43.415Z,22.67
2019-06-26T08:01:13.314Z,25.00
2019-06-26T08:03:43.250Z,27.27
2019-06-26T08:06:13.157Z,25.30
2019-06-26T08:08:43.036Z,32.38
2019-06-26T08:11:12.911Z,29.32
2019-06-26T08:13:42.791Z,32.98
2019-06-26T08:16:12.685Z,27.75
2019-06-26T08:18:42.547Z,28.25
2019-06-26T08:21:13.105Z,28.73
2019-06-26T08:23:43.182Z,26.17
2019-06-26T08:26:13.082Z,27.45
2019-06-26T08:28:43.018Z,21.40
2019-06-26T08:31:12.946Z,20.77
2019-06-26T08:33:42.977Z,19.65
2019-06-26T08:36:12.840Z,20.12
2019-06-26T08:38:42.753Z,17.32
2019-06-26T08:41:12.755Z,19.32
2019-06-26T08:43:42.682Z,13.90
2019-06-26T08:46:12.562Z,16.37
2019-06-26T08:48:42.448Z,13.25
2019-06-26T08:51:12.316Z,13.20
2019-06-26T08:53:42.220Z,17.95
2019-06-26T08:56:12.234Z,22.10
2019-06-26T08:58:42.096Z,16.20
2019-06-26T09:01:11.995Z,11.55
2019-06-26T09:03:42.198Z,12.00
2019-06-26T09:06:12.133Z,19.73
2019-06-26T09:08:42.112Z,17.85
2019-06-26T09:11:12.001Z,15.00
2019-06-26T09:13:41.951Z,17.00
2019-06-26T09:16:11.824Z,14.95
2019-06-26T09:18:41.691Z,18.77
2019-06-26T09:21:11.563Z,15.30
2019-06-26T09:23:41.694Z,19.37
2019-06-26T09:26:11.599Z,14.30
2019-06-26T09:28:41.443Z,16.07
2019-06-26T09:31:11.333Z,15.63
2019-06-26T09:33:41.287Z,14.70
2019-06-26T09:36:11.179Z,13.90
2019-06-26T09:38:41.046Z,12.50
2019-06-26T09:41:10.919Z,26.48
2019-06-26T09:43:40.862Z,21.02
2019-06-26T09:46:10.800Z,22.80
2019-06-26T09:48:52.013Z,21.12
2019-06-26T09:51:13.239Z,16.35
2019-06-26T09:53:47.749Z,22.13
2019-06-26T09:56:14.785Z,72.62
2019-06-26T09:58:44.722Z,154.27
2019-06-26T10:01:14.691Z,131.45
2019-06-26T10:03:45.406Z,93.67
2019-06-26T10:06:15.450Z,79.15
2019-06-26T10:08:45.314Z,72.62
2019-06-26T10:11:15.371Z,56.05
2019-06-26T10:13:45.329Z,57.40
2019-06-26T10:16:15.262Z,34.85
2019-06-26T10:18:45.365Z,106.67
2019-06-26T10:21:15.350Z,75.90
2019-06-26T10:23:45.981Z,216.35
2019-06-26T10:26:15.917Z,52.33
2019-06-26T10:28:45.978Z,30.35
2019-06-26T10:31:18.338Z,38.25
2019-06-26T10:33:47.652Z,11.28
2019-06-26T10:36:17.512Z,10.08
2019-06-26T10:38:47.505Z,23.02
2019-06-26T10:41:17.435Z,27.55
2019-06-26T10:43:47.349Z,18.95
2019-06-26T10:46:17.224Z,23.18
2019-06-26T10:48:47.323Z,30.35
2019-06-26T10:51:17.236Z,24.30
2019-06-26T10:53:47.148Z,23.15
2019-06-26T10:56:17.164Z,39.78
2019-06-26T10:58:47.296Z,16.00
2019-06-26T11:01:17.284Z,14.83
2019-06-26T11:03:47.272Z,14.98
2019-06-26T11:06:17.275Z,17.75
2019-06-26T11:08:47.374Z,12.47
2019-06-26T11:11:17.327Z,10.98
2019-06-26T11:13:47.233Z,31.70
2019-06-26T11:16:17.280Z,115.88
2019-06-26T11:18:47.328Z,150.40
2019-06-26T11:21:17.338Z,112.08
2019-06-26T11:23:47.251Z,99.22
2019-06-26T11:26:17.199Z,205.98
2019-06-26T11:28:47.204Z,264.48
2019-06-26T11:31:17.191Z,191.15
2019-06-26T11:33:47.176Z,143.55
2019-06-26T11:36:17.179Z,118.02
2019-06-26T11:38:47.104Z,102.42
2019-06-26T11:41:17.155Z,67.80
2019-06-26T11:43:47.166Z,68.05
2019-06-26T11:46:17.256Z,49.35
2019-06-26T11:48:47.245Z,52.43
2019-06-26T11:51:17.236Z,44.45
2019-06-26T11:53:47.160Z,37.15
2019-06-26T11:56:17.163Z,31.50
2019-06-26T11:58:47.156Z,33.55
2019-06-26T12:01:17.080Z,32.90
2019-06-26T12:03:47.159Z,17.40
2019-06-26T12:06:19.132Z,15.75
2019-06-26T12:08:48.873Z,14.20
2019-06-26T12:11:18.813Z,14.20
2019-06-26T12:13:48.978Z,13.72
2019-06-26T12:16:19.126Z,16.82
2019-06-26T12:18:49.250Z,20.10
2019-06-26T12:21:20.204Z,11.48
2019-06-26T12:23:50.126Z,14.58
2019-06-26T12:26:20.104Z,11.33
2019-06-26T12:28:50.111Z,15.63
2019-06-26T12:31:20.103Z,11.68
2019-06-26T12:33:50.139Z,22.17
2019-06-26T12:36:20.127Z,15.90
2019-06-26T12:38:50.178Z,12.95
2019-06-26T12:41:20.194Z,19.55
2019-06-26T12:43:50.181Z,19.77
2019-06-26T12:46:20.139Z,12.70
2019-06-26T12:48:50.119Z,10.48
2019-06-26T12:51:20.043Z,17.20
2019-06-26T12:53:50.015Z,13.00
2019-06-26T12:56:20.069Z,12.58
2019-06-26T12:58:50.087Z,20.95
2019-06-26T13:01:20.156Z,17.02
2019-06-26T13:03:50.203Z,19.85
2019-06-26T13:06:20.244Z,14.43
2019-06-26T13:08:50.230Z,10.32
2019-06-26T13:11:20.600Z,11.50
2019-06-26T13:14:02.019Z,11.65
2019-06-26T13:16:23.359Z,10.95
2019-06-26T13:18:53.248Z,10.93
2019-06-26T13:21:23.175Z,11.50
2019-06-26T13:23:53.144Z,12.68
2019-06-26T13:26:23.160Z,13.60
2019-06-26T13:28:53.066Z,11.20
2019-06-26T13:31:22.979Z,11.83
2019-06-26T13:33:52.904Z,15.05
2019-06-26T13:36:22.830Z,15.28
2019-06-26T13:38:52.715Z,16.25
2019-06-26T13:41:22.725Z,12.25
2019-06-26T13:43:52.649Z,18.82
2019-06-26T13:46:22.659Z,46.50
2019-06-26T13:48:52.688Z,110.97
2019-06-26T13:51:22.651Z,104.03
2019-06-26T13:53:52.675Z,25.72
2019-06-26T13:56:22.554Z,17.30
2019-06-26T13:58:52.488Z,55.85
2019-06-26T14:01:23.246Z,71.62
2019-06-26T14:03:53.392Z,26.40
2019-06-26T14:06:23.320Z,30.55
2019-06-26T14:08:53.269Z,92.37
2019-06-26T14:11:23.376Z,38.63
2019-06-26T14:13:53.364Z,28.07
2019-06-26T14:16:23.376Z,22.55
2019-06-26T14:18:53.295Z,19.95
2019-06-26T14:21:25.956Z,20.62
2019-06-26T14:23:54.998Z,33.45
2019-06-26T14:26:25.154Z,22.27
2019-06-26T14:28:55.148Z,20.88
2019-06-26T14:31:25.115Z,39.15
2019-06-26T14:33:55.018Z,19.65
2019-06-26T14:36:24.944Z,25.92
2019-06-26T14:38:54.899Z,35.75
2019-06-26T14:41:24.793Z,22.50
2019-06-26T14:43:54.749Z,17.10
2019-06-26T14:46:24.685Z,10.38
2019-06-26T14:48:54.566Z,18.20
2019-06-26T14:51:40.950Z,12.13
2019-06-26T14:53:56.068Z,14.90
2019-06-26T14:56:26.019Z,12.35
2019-06-26T14:58:55.920Z,11.03
2019-06-26T15:01:25.845Z,11.63
2019-06-26T15:03:55.776Z,17.12
2019-06-26T15:06:25.801Z,27.17
2019-06-26T15:08:55.679Z,16.57
2019-06-26T15:11:25.623Z,44.95
2019-06-26T15:13:55.862Z,13.68
2019-06-26T15:16:26.150Z,29.77
2019-06-26T15:18:56.083Z,36.77
2019-06-26T15:21:26.490Z,24.65
2019-06-26T15:23:56.401Z,21.77
2019-06-26T15:26:26.328Z,12.60
2019-06-26T15:28:56.199Z,12.23
2019-06-26T15:31:26.218Z,19.73
2019-06-26T15:33:56.210Z,25.08
2019-06-26T15:36:26.209Z,9.48
2019-06-26T15:38:59.124Z,12.30
2019-06-26T15:41:27.391Z,10.58
2019-06-26T15:43:57.412Z,12.28
2019-06-26T15:46:27.360Z,11.35
2019-06-26T15:48:57.343Z,12.95
2019-06-26T15:51:27.472Z,12.47
2019-06-26T15:53:59.981Z,6.37
2019-06-26T15:56:29.103Z,12.53
2019-06-26T15:58:59.167Z,13.53
2019-06-26T16:01:29.372Z,9.50
2019-06-26T16:03:59.344Z,12.28
2019-06-26T16:06:29.448Z,14.43
2019-06-26T16:08:59.372Z,14.80
2019-06-26T16:11:29.397Z,11.35
2019-06-26T16:13:59.464Z,14.05
2019-06-26T16:16:30.130Z,9.15
2019-06-26T16:19:04.810Z,17.87
2019-06-26T16:21:34.776Z,13.05
2019-06-26T16:24:04.860Z,12.63
2019-06-26T16:26:34.967Z,11.45
2019-06-26T16:29:05.077Z,11.55
2019-06-26T16:31:35.033Z,11.48
2019-06-26T16:34:05.324Z,14.03
2019-06-26T16:36:35.335Z,12.20
2019-06-26T16:39:06.779Z,18.95
2019-06-26T16:41:37.027Z,17.52
2019-06-26T16:44:06.968Z,12.88
2019-06-26T16:46:36.866Z,11.73
2019-06-26T16:49:06.795Z,12.33
2019-06-26T16:51:37.400Z,15.85
2019-06-26T16:54:07.386Z,13.88
2019-06-26T16:56:37.295Z,14.10
2019-06-26T16:59:07.303Z,11.12
2019-06-26T17:01:37.172Z,10.48
2019-06-26T17:04:07.227Z,10.13
2019-06-26T17:06:37.139Z,15.48
2019-06-26T17:09:08.252Z,14.87
2019-06-26T17:11:38.309Z,13.53
2019-06-26T17:14:08.382Z,9.58
2019-06-26T17:16:38.287Z,10.55
2019-06-26T17:19:08.279Z,9.65
2019-06-26T17:21:38.186Z,13.00
2019-06-26T17:24:08.110Z,12.53
2019-06-26T17:26:37.966Z,11.35
2019-06-26T17:29:07.849Z,8.80
2019-06-26T17:31:37.741Z,12.82
2019-06-26T17:34:07.699Z,10.20
2019-06-26T17:36:37.561Z,10.78
2019-06-26T17:39:07.687Z,12.50
2019-06-26T17:41:37.659Z,11.97
2019-06-26T17:44:07.619Z,12.37
2019-06-26T17:46:37.494Z,8.83
2019-06-26T17:49:07.398Z,9.78
2019-06-26T17:51:37.357Z,9.85
2019-06-26T17:54:07.488Z,60.05
2019-06-26T17:56:37.384Z,36.23
2019-06-26T17:59:07.385Z,35.63
2019-06-26T18:01:37.380Z,110.50
2019-06-26T18:04:07.295Z,44.83
2019-06-26T18:06:37.179Z,94.50
2019-06-26T18:09:12.022Z,70.70
2019-06-26T18:11:40.600Z,55.90
2019-06-26T18:14:10.560Z,36.20
2019-06-26T18:16:40.491Z,46.42
2019-06-26T18:19:10.368Z,33.67
2019-06-26T18:21:40.323Z,38.05
2019-06-26T18:24:10.323Z,16.10
2019-06-26T18:26:40.228Z,15.55
2019-06-26T18:29:10.152Z,35.30
2019-06-26T18:31:40.037Z,13.15
2019-06-26T18:34:09.934Z,23.62
2019-06-26T18:36:39.899Z,26.82
2019-06-26T18:39:09.959Z,17.48
2019-06-26T18:41:39.943Z,25.08
2019-06-26T18:44:09.859Z,23.92
2019-06-26T18:46:39.779Z,23.55
2019-06-26T18:49:09.675Z,17.35
2019-06-26T18:51:39.546Z,26.12
2019-06-26T18:54:09.454Z,28.35
2019-06-26T18:56:39.420Z,12.20
2019-06-26T18:59:09.769Z,14.90
2019-06-26T19:01:40.724Z,25.00
2019-06-26T19:04:10.658Z,23.45
2019-06-26T19:06:40.591Z,19.92
2019-06-26T19:09:10.606Z,20.82
2019-06-26T19:11:40.532Z,19.48
2019-06-26T19:14:10.467Z,25.05
2019-06-26T19:16:40.404Z,26.15
2019-06-26T19:19:12.411Z,18.73
2019-06-26T19:21:41.914Z,55.28
2019-06-26T19:24:11.958Z,30.35
2019-06-26T19:26:41.877Z,91.75
2019-06-26T19:29:11.853Z,31.97
2019-06-26T19:31:41.766Z,29.07
2019-06-26T19:34:11.691Z,18.62
2019-06-26T19:36:49.969Z,16.50
2019-06-26T19:39:13.951Z,15.65
2019-06-26T19:41:43.903Z,58.45
2019-06-26T19:44:13.795Z,88.03
2019-06-26T19:46:43.746Z,69.60
2019-06-26T19:49:13.659Z,55.45
2019-06-26T19:51:43.592Z,48.08
2019-06-26T19:54:26.653Z,43.15
2019-06-26T19:56:45.226Z,37.98
2019-06-26T19:59:15.235Z,34.83
2019-06-26T20:01:45.142Z,27.32
2019-06-26T20:04:15.258Z,25.45
2019-06-26T20:06:45.172Z,22.87
2019-06-26T20:09:15.162Z,22.70
2019-06-26T20:11:45.102Z,18.62
2019-06-26T20:14:15.146Z,19.10
2019-06-26T20:16:45.109Z,17.25
2019-06-26T20:19:15.008Z,12.55
2019-06-26T20:21:44.942Z,16.52
2019-06-26T20:24:14.900Z,16.40
2019-06-26T20:26:44.857Z,15.65
2019-06-26T20:29:14.875Z,15.83
2019-06-26T20:31:44.812Z,11.85
2019-06-26T20:34:14.707Z,15.05
2019-06-26T20:36:44.719Z,18.10
2019-06-26T20:39:14.725Z,24.57
2019-06-26T20:41:44.627Z,29.00
2019-06-26T20:44:14.731Z,33.58
2019-06-26T20:46:44.703Z,62.70
2019-06-26T20:49:14.655Z,105.60
2019-06-26T20:51:44.547Z,85.15
2019-06-26T20:54:14.643Z,38.15
2019-06-26T20:56:44.558Z,50.05
2019-06-26T20:59:14.561Z,66.00
2019-06-26T21:01:44.581Z,16.60
2019-06-26T21:04:14.482Z,42.27
2019-06-26T21:06:44.713Z,43.38
2019-06-26T21:09:14.652Z,31.80
2019-06-26T21:11:44.652Z,32.65
2019-06-26T21:14:14.567Z,26.45
2019-06-26T21:16:44.543Z,17.77
2019-06-26T21:19:14.584Z,21.77
2019-06-26T21:21:44.532Z,22.58
2019-06-26T21:24:14.525Z,23.00
2019-06-26T21:26:44.557Z,16.25
2019-06-26T21:29:14.499Z,16.85
2019-06-26T21:31:44.438Z,33.92
2019-06-26T21:34:14.373Z,32.13
2019-06-26T21:36:44.464Z,42.35
2019-06-26T21:39:14.512Z,56.10
2019-06-26T21:41:44.415Z,66.60
2019-06-26T21:44:14.291Z,27.90
2019-06-26T21:46:44.285Z,38.02
2019-06-26T21:49:14.182Z,40.83
2019-06-26T21:51:44.151Z,17.92
2019-06-26T21:54:14.058Z,39.70
2019-06-26T21:56:43.992Z,43.58
2019-06-26T21:59:13.981Z,29.18
2019-06-26T22:01:44.059Z,15.80
2019-06-26T22:04:13.968Z,79.45
2019-06-26T22:06:44.377Z,26.17
2019-06-26T22:09:14.440Z,58.78
2019-06-26T22:11:44.431Z,50.67
2019-06-26T22:14:16.917Z,71.50
2019-06-26T22:16:46.896Z,39.88
2019-06-26T22:19:16.878Z,37.42
2019-06-26T22:21:46.942Z,37.67
2019-06-26T22:24:17.227Z,26.75
2019-06-26T22:26:47.266Z,19.75
2019-06-26T22:29:17.235Z,21.00
2019-06-26T22:31:47.266Z,21.20
2019-06-26T22:34:17.135Z,16.85
2019-06-26T22:36:51.773Z,15.23
2019-06-26T22:39:18.628Z,23.57
2019-06-26T22:41:48.607Z,16.27
2019-06-26T22:44:18.483Z,15.50
2019-06-26T22:46:48.402Z,10.48
2019-06-26T22:49:18.350Z,12.28
2019-06-26T22:51:48.363Z,13.48
2019-06-26T22:54:19.824Z,14.13
2019-06-26T22:56:50.108Z,10.00
2019-06-26T22:59:20.037Z,13.93
2019-06-26T23:01:50.063Z,13.72
2019-06-26T23:04:20.048Z,14.07
2019-06-26T23:06:50.211Z,15.13
2019-06-26T23:09:20.140Z,10.88
2019-06-26T23:11:50.224Z,11.22
2019-06-26T23:14:20.391Z,11.80
2019-06-26T23:16:50.428Z,10.70
2019-06-26T23:19:20.360Z,9.45
2019-06-26T23:21:50.392Z,10.82
2019-06-26T23:24:20.419Z,8.65
2019-06-26T23:26:50.565Z,12.07
2019-06-26T23:29:20.541Z,9.50
2019-06-26T23:31:50.489Z,9.35
2019-06-26T23:34:20.397Z,9.18
2019-06-26T23:36:50.389Z,14.25
2019-06-26T23:39:20.381Z,17.87
2019-06-26T23:41:50.429Z,11.63
2019-06-26T23:44:20.405Z,11.53
2019-06-26T23:46:50.326Z,9.93
2019-06-26T23:49:20.256Z,17.55
2019-06-26T23:51:50.170Z,9.75
2019-06-26T23:54:20.140Z,9.70
2019-06-26T23:56:50.115Z,9.28
2019-06-26T23:59:20.018Z,19.75
